Time;durP1;ratioP1;P1;durP2;ratioP2;P2;SDS_P1;SDS_P2;PMS_P1;PMS_P2;Temp;Humidity;BMP_temperature;BMP_pressure;BME280_temperature;BME280_humidity;BME280_pressure;Samples;Min_cycle;Max_cycle;Signal;HPM_P1;HPM_P2
2023/03/17 00:00:04;;;;;;;3.75;2.22;;;10.80;68.20;;;;;;2073342;28;20075;-71
2023/03/17 00:01:04;;;;;;;4.05;3.13;;;10.80;67.90;;;;;;2082322;28;20486;-71
2023/03/17 00:02:05;;;;;;;4.43;2.85;;;10.90;68.00;;;;;;2080973;28;20021;-71
2023/03/17 00:03:06;;;;;;;3.75;2.28;;;10.80;67.80;;;;;;2075744;28;20030;-71
2023/03/17 00:04:11;;;;;;;3.92;2.00;;;10.90;67.90;;;;;;2075474;28;20022;-71
2023/03/17 00:05:18;;;;;;;2.78;1.98;;;10.90;67.90;;;;;;2072162;28;20010;-71
2023/03/17 00:06:28;;;;;;;4.50;2.58;;;10.90;68.10;;;;;;2074358;28;20095;-72
2023/03/17 00:07:29;;;;;;;2.13;1.88;;;10.80;68.10;;;;;;2076932;28;20029;-71
2023/03/17 00:08:34;;;;;;;6.93;2.53;;;10.90;68.00;;;;;;2077618;28;20029;-72
2023/03/17 00:09:35;;;;;;;1.92;1.73;;;10.80;68.10;;;;;;2073577;28;20018;-72
2023/03/17 00:10:36;;;;;;;4.13;1.77;;;10.90;68.20;;;;;;2074680;28;20025;-71
2023/03/17 00:11:37;;;;;;;2.75;1.80;;;10.90;68.20;;;;;;2078361;28;20022;-71
2023/03/17 00:12:37;;;;;;;2.58;2.05;;;10.90;68.20;;;;;;2078688;28;20068;-72
2023/03/17 00:13:38;;;;;;;3.22;2.00;;;10.90;68.20;;;;;;2075041;28;20025;-72
2023/03/17 00:14:39;;;;;;;2.22;1.80;;;10.90;68.10;;;;;;2074862;28;20091;-72
2023/03/17 00:15:39;;;;;;;4.57;2.10;;;10.90;68.00;;;;;;2073711;28;20025;-71
2023/03/17 00:16:42;;;;;;;4.07;1.75;;;10.90;67.90;;;;;;2075022;28;20069;-71
2023/03/17 00:17:44;;;;;;;3.50;2.03;;;10.90;67.90;;;;;;2074726;28;20019;-71
2023/03/17 00:18:45;;;;;;;2.35;2.15;;;10.90;68.20;;;;;;2073904;28;20087;-71
2023/03/17 00:19:47;;;;;;;2.20;2.00;;;11.00;68.00;;;;;;2076993;28;20075;-71
2023/03/17 00:20:47;;;;;;;3.97;2.00;;;10.90;67.90;;;;;;2076007;28;20019;-71
2023/03/17 00:21:48;;;;;;;3.20;2.00;;;10.90;67.90;;;;;;2075499;28;20529;-72
2023/03/17 00:22:50;;;;;;;3.85;2.20;;;10.90;68.00;;;;;;2074792;28;20072;-71
2023/03/17 00:23:50;;;;;;;2.78;2.10;;;11.00;67.90;;;;;;2074072;28;20121;-71
2023/03/17 00:24:51;;;;;;;3.40;2.17;;;11.00;67.80;;;;;;2072849;28;20018;-72
2023/03/17 00:25:52;;;;;;;3.60;2.13;;;11.00;67.80;;;;;;2074511;28;20037;-71
2023/03/17 00:26:53;;;;;;;2.13;1.83;;;11.00;67.80;;;;;;2074594;28;20029;-71
2023/03/17 00:27:55;;;;;;;2.15;1.95;;;11.00;67.90;;;;;;2073463;28;20108;-72
2023/03/17 00:28:56;;;;;;;4.05;2.17;;;11.00;67.60;;;;;;2073152;28;20029;-71
2023/03/17 00:29:57;;;;;;;3.25;2.22;;;11.00;67.50;;;;;;2074076;28;20064;-71
2023/03/17 00:31:00;;;;;;;2.70;1.88;;;11.00;67.50;;;;;;2077045;28;20584;-71
2023/03/17 00:32:01;;;;;;;6.03;1.85;;;11.00;67.50;;;;;;2071243;28;20413;-72
2023/03/17 00:33:03;;;;;;;3.25;2.00;;;11.00;67.40;;;;;;2076608;28;20021;-71
2023/03/17 00:34:04;;;;;;;3.55;2.00;;;11.00;67.40;;;;;;2076200;28;20108;-71
2023/03/17 00:35:15;;;;;;;2.22;1.98;;;11.10;67.50;;;;;;2078340;28;20018;-71
2023/03/17 00:36:22;;;;;;;2.42;2.00;;;11.10;67.70;;;;;;2076234;28;20079;-71
2023/03/17 00:37:23;;;;;;;2.67;1.58;;;11.10;67.70;;;;;;2076020;28;20417;-71
2023/03/17 00:38:24;;;;;;;3.85;2.40;;;11.00;67.70;;;;;;2075755;28;20030;-71
2023/03/17 00:39:25;;;;;;;3.22;1.65;;;11.10;67.60;;;;;;2077840;28;20026;-71
2023/03/17 00:40:29;;;;;;;1.55;1.45;;;11.10;67.40;;;;;;2077299;28;20050;-71
2023/03/17 00:41:30;;;;;;;2.28;1.40;;;11.10;67.50;;;;;;2075217;28;20029;-71
2023/03/17 00:42:31;;;;;;;3.35;1.90;;;11.10;67.60;;;;;;2076287;28;20029;-71
2023/03/17 00:43:31;;;;;;;5.20;2.20;;;11.00;67.50;;;;;;2075559;28;20022;-71
2023/03/17 00:44:33;;;;;;;2.75;2.08;;;11.10;67.60;;;;;;2078099;28;20057;-71
2023/03/17 00:45:33;;;;;;;3.30;1.85;;;11.00;67.70;;;;;;2076179;28;20026;-71
2023/03/17 00:46:36;;;;;;;4.63;1.63;;;11.00;67.60;;;;;;2075525;28;20038;-72
2023/03/17 00:47:37;;;;;;;1.77;1.67;;;11.00;67.60;;;;;;2075249;28;20363;-71
2023/03/17 00:48:38;;;;;;;3.25;1.90;;;11.10;67.70;;;;;;2075210;28;20224;-72
2023/03/17 00:49:38;;;;;;;2.53;1.85;;;11.00;67.70;;;;;;2077454;28;20071;-72
2023/03/17 00:50:39;;;;;;;2.28;1.90;;;11.00;67.80;;;;;;2079686;28;20400;-72
2023/03/17 00:51:40;;;;;;;2.70;1.85;;;11.00;68.00;;;;;;2076249;28;20033;-72
2023/03/17 00:52:43;;;;;;;2.88;1.83;;;11.00;67.80;;;;;;2075216;28;20104;-71
2023/03/17 00:53:44;;;;;;;2.78;2.03;;;11.00;67.70;;;;;;2076494;28;22560;-72
2023/03/17 00:54:45;;;;;;;6.55;2.33;;;11.00;67.90;;;;;;2075185;28;20033;-71
2023/03/17 00:55:46;;;;;;;2.55;1.95;;;11.00;68.00;;;;;;2075385;28;20495;-71
2023/03/17 00:56:49;;;;;;;4.88;1.60;;;11.00;68.20;;;;;;2077543;28;20035;-71
2023/03/17 00:57:50;;;;;;;1.88;1.75;;;11.00;68.30;;;;;;2076989;28;20017;-72
2023/03/17 00:58:51;;;;;;;3.60;2.00;;;11.00;68.00;;;;;;2077222;28;20053;-72
2023/03/17 00:59:52;;;;;;;1.92;1.60;;;10.90;67.90;;;;;;2079829;28;20354;-72
2023/03/17 01:00:53;;;;;;;3.22;2.08;;;10.90;68.00;;;;;;2081362;28;20022;-72
2023/03/17 01:01:55;;;;;;;3.05;2.00;;;10.90;68.20;;;;;;2074737;28;20040;-72
2023/03/17 01:02:56;;;;;;;2.83;1.85;;;10.90;67.90;;;;;;2077052;28;20018;-72
2023/03/17 01:03:57;;;;;;;2.33;1.80;;;10.90;67.70;;;;;;2077719;28;20029;-72
2023/03/17 01:04:59;;;;;;;3.38;1.98;;;10.90;67.70;;;;;;2076420;28;20016;-72
2023/03/17 01:06:01;;;;;;;2.65;2.03;;;10.90;67.90;;;;;;2077118;28;20036;-71
2023/03/17 01:07:02;;;;;;;2.92;1.73;;;10.90;67.80;;;;;;2075667;28;20026;-72
2023/03/17 01:08:04;;;;;;;2.85;1.70;;;10.90;67.70;;;;;;2076945;28;20074;-72
2023/03/17 01:09:07;;;;;;;2.72;1.90;;;10.90;67.70;;;;;;2075067;28;20439;-72
2023/03/17 01:10:15;;;;;;;2.28;1.90;;;10.90;67.70;;;;;;2076000;28;20700;-72
2023/03/17 01:11:17;;;;;;;2.38;1.77;;;10.80;67.40;;;;;;2076660;28;20033;-72
2023/03/17 01:12:19;;;;;;;2.80;1.88;;;10.80;67.40;;;;;;2075084;28;20034;-72
2023/03/17 01:13:19;;;;;;;2.75;1.70;;;10.80;67.60;;;;;;2075486;28;20254;-71
2023/03/17 01:14:20;;;;;;;1.90;1.80;;;10.80;67.70;;;;;;2076806;28;20117;-72
2023/03/17 01:15:21;;;;;;;4.65;2.00;;;10.80;67.50;;;;;;2078459;28;20032;-72
2023/03/17 01:16:22;;;;;;;3.00;1.60;;;10.80;67.60;;;;;;2075597;28;20076;-72
2023/03/17 01:17:23;;;;;;;1.92;1.70;;;10.80;67.60;;;;;;2078502;28;20660;-71
2023/03/17 01:18:23;;;;;;;2.67;1.83;;;10.80;67.60;;;;;;2078368;28;20124;-71
2023/03/17 01:19:24;;;;;;;2.45;1.73;;;10.80;67.50;;;;;;2075195;28;20797;-71
2023/03/17 01:20:29;;;;;;;1.83;1.65;;;10.80;67.70;;;;;;2074648;28;20022;-72
2023/03/17 01:21:30;;;;;;;3.63;2.08;;;10.80;67.70;;;;;;2074703;28;20033;-71
2023/03/17 01:22:31;;;;;;;2.10;1.95;;;10.80;67.80;;;;;;2075597;28;20035;-72
2023/03/17 01:23:31;;;;;;;3.28;1.77;;;10.80;67.80;;;;;;2075514;28;20491;-71
2023/03/17 01:24:32;;;;;;;3.10;2.17;;;10.80;67.60;;;;;;2076181;28;20105;-72
2023/03/17 01:25:33;;;;;;;3.40;1.85;;;10.80;67.60;;;;;;2076754;28;20035;-72
2023/03/17 01:26:33;;;;;;;3.42;1.92;;;10.80;67.70;;;;;;2075249;28;20076;-72
2023/03/17 01:27:35;;;;;;;2.05;1.85;;;10.80;67.80;;;;;;2075980;28;20069;-72
2023/03/17 01:28:36;;;;;;;2.83;1.95;;;10.80;68.00;;;;;;2074394;28;20044;-71
2023/03/17 01:29:36;;;;;;;2.40;1.88;;;10.70;68.00;;;;;;2077588;28;20025;-71
2023/03/17 01:30:38;;;;;;;2.42;1.70;;;10.70;68.10;;;;;;2077359;28;20622;-71
2023/03/17 01:31:38;;;;;;;2.28;2.00;;;10.70;67.90;;;;;;2075164;28;20159;-71
2023/03/17 01:32:39;;;;;;;1.75;1.65;;;10.70;67.80;;;;;;2075968;28;20041;-71
2023/03/17 01:33:40;;;;;;;2.55;1.70;;;10.70;67.80;;;;;;2076313;28;20036;-71
2023/03/17 01:34:40;;;;;;;3.70;1.70;;;10.70;68.10;;;;;;2076739;28;20033;-71
2023/03/17 01:35:44;;;;;;;1.85;1.73;;;10.70;68.10;;;;;;2073394;28;20117;-72
2023/03/17 01:36:45;;;;;;;2.45;1.65;;;10.80;68.20;;;;;;2067587;28;20145;-71
2023/03/17 01:37:46;;;;;;;3.17;2.40;;;10.70;68.10;;;;;;2067110;28;20029;-71
2023/03/17 01:38:49;;;;;;;2.22;1.75;;;10.80;68.00;;;;;;2071097;28;20375;-71
2023/03/17 01:39:51;;;;;;;2.90;1.98;;;10.70;67.90;;;;;;2074667;28;20010;-71
2023/03/17 01:40:52;;;;;;;3.17;2.22;;;10.70;68.00;;;;;;2075432;28;20022;-71
2023/03/17 01:41:55;;;;;;;3.25;1.90;;;10.70;68.10;;;;;;2076146;28;20029;-72
2023/03/17 01:43:05;;;;;;;2.10;1.63;;;10.70;68.10;;;;;;2074726;28;20033;-72
2023/03/17 01:44:06;;;;;;;2.28;1.83;;;10.80;67.80;;;;;;2074551;28;20385;-72
2023/03/17 01:45:28;;;;;;;5.82;2.17;;;10.70;67.70;;;;;;2075755;28;20030;-72
2023/03/17 01:46:32;;;;;;;3.00;1.98;;;10.80;67.90;;;;;;2074558;28;20560;-72
2023/03/17 01:47:33;;;;;;;3.15;2.15;;;10.70;68.00;;;;;;2073283;28;20088;-72
2023/03/17 01:48:41;;;;;;;2.58;1.95;;;10.70;67.90;;;;;;2075338;28;20113;-71
2023/03/17 01:49:42;;;;;;;2.65;2.00;;;10.70;67.90;;;;;;2074286;28;20057;-72
2023/03/17 01:50:45;;;;;;;2.63;2.08;;;10.70;67.70;;;;;;2075019;28;20492;-71
2023/03/17 01:51:57;;;;;;;3.05;1.92;;;10.70;67.90;;;;;;2076382;28;20104;-71
2023/03/17 01:52:58;;;;;;;2.45;1.77;;;10.70;68.00;;;;;;2069533;28;20132;-71
2023/03/17 01:54:02;;;;;;;3.00;1.95;;;10.70;67.90;;;;;;2066399;28;20045;-72
2023/03/17 01:55:07;;;;;;;3.40;2.22;;;10.70;67.60;;;;;;2076018;28;20033;-71
2023/03/17 01:56:08;;;;;;;2.20;1.70;;;10.70;67.60;;;;;;2075320;28;20129;-72
2023/03/17 01:57:15;;;;;;;3.17;1.60;;;10.70;67.50;;;;;;2077263;28;20018;-72
2023/03/17 01:58:18;;;;;;;2.97;1.90;;;10.70;67.70;;;;;;2074743;28;20097;-71
2023/03/17 01:59:25;;;;;;;3.17;2.20;;;10.70;67.60;;;;;;2074549;28;20017;-72
2023/03/17 02:00:26;;;;;;;3.33;2.05;;;10.70;67.70;;;;;;2075651;28;20855;-71
2023/03/17 02:01:36;;;;;;;2.40;1.88;;;10.70;67.70;;;;;;2076486;28;20053;-72
2023/03/17 02:02:40;;;;;;;3.38;2.10;;;10.70;67.70;;;;;;2075035;28;20108;-72
2023/03/17 02:03:42;;;;;;;2.40;2.05;;;10.70;67.50;;;;;;2073921;28;20064;-72
2023/03/17 02:04:42;;;;;;;3.30;1.92;;;10.70;67.60;;;;;;2072425;28;20469;-72
2023/03/17 02:05:44;;;;;;;2.40;2.13;;;10.70;67.40;;;;;;2075586;28;20057;-72
2023/03/17 02:06:48;;;;;;;3.55;2.00;;;10.80;67.40;;;;;;2075093;28;20448;-71
2023/03/17 02:07:49;;;;;;;6.53;2.42;;;10.70;67.40;;;;;;2076782;28;20366;-72
2023/03/17 02:08:51;;;;;;;4.28;1.77;;;10.80;67.50;;;;;;2076430;28;20029;-71
2023/03/17 02:09:53;;;;;;;3.42;2.15;;;10.70;67.20;;;;;;2075502;28;20018;-72
2023/03/17 02:10:56;;;;;;;3.13;1.88;;;10.80;67.20;;;;;;2074293;28;20080;-72
2023/03/17 02:11:59;;;;;;;2.80;2.05;;;10.80;67.30;;;;;;2077162;28;20025;-72
2023/03/17 02:13:04;;;;;;;2.33;1.90;;;10.80;67.30;;;;;;2075471;28;20037;-71
2023/03/17 02:14:05;;;;;;;3.92;1.90;;;10.80;67.40;;;;;;2075082;28;20076;-72
2023/03/17 02:15:06;;;;;;;3.90;2.05;;;10.80;67.40;;;;;;2075319;28;20076;-72
2023/03/17 02:16:16;;;;;;;2.63;1.90;;;10.80;67.20;;;;;;2076689;28;20079;-72
2023/03/17 02:17:24;;;;;;;2.25;1.90;;;10.80;67.20;;;;;;2075520;28;20026;-71
2023/03/17 02:18:25;;;;;;;5.78;2.22;;;10.80;67.20;;;;;;2074825;28;20026;-72
2023/03/17 02:19:25;;;;;;;2.80;1.83;;;10.80;67.30;;;;;;2075062;28;20013;-72
2023/03/17 02:20:26;;;;;;;2.00;1.65;;;10.80;67.50;;;;;;2074196;28;20145;-71
2023/03/17 02:21:49;;;;;;;2.35;1.77;;;10.80;67.50;;;;;;2075162;28;20025;-72
2023/03/17 02:22:52;;;;;;;2.58;2.10;;;10.80;67.30;;;;;;2084357;28;20071;-71
2023/03/17 02:23:53;;;;;;;2.70;2.17;;;10.70;67.40;;;;;;2081516;28;20013;-71
2023/03/17 02:24:57;;;;;;;3.08;2.20;;;10.80;67.50;;;;;;2075589;28;20040;-71
2023/03/17 02:25:57;;;;;;;2.08;1.73;;;10.80;67.70;;;;;;2078860;28;20033;-71
2023/03/17 02:27:11;;;;;;;3.15;1.90;;;10.80;67.60;;;;;;2070299;28;20498;-71
2023/03/17 02:28:17;;;;;;;2.30;1.75;;;10.80;67.40;;;;;;2074331;28;20397;-71
2023/03/17 02:29:19;;;;;;;4.45;2.08;;;10.70;67.00;;;;;;2076558;28;20033;-71
2023/03/17 02:30:22;;;;;;;2.47;2.15;;;10.80;67.20;;;;;;2075098;28;20022;-72
2023/03/17 02:31:25;;;;;;;2.67;2.03;;;10.70;67.10;;;;;;2077045;28;20033;-71
2023/03/17 02:32:26;;;;;;;2.33;1.77;;;10.80;67.30;;;;;;2075482;28;20022;-72
2023/03/17 02:33:26;;;;;;;2.17;1.73;;;10.80;67.50;;;;;;2074374;28;20033;-71
2023/03/17 02:34:27;;;;;;;2.53;2.20;;;10.80;67.30;;;;;;2075305;28;20072;-71
2023/03/17 02:35:28;;;;;;;2.95;1.83;;;10.80;67.40;;;;;;2074266;28;20030;-71
2023/03/17 02:36:28;;;;;;;2.55;2.05;;;10.80;67.30;;;;;;2074646;28;20521;-72
2023/03/17 02:37:29;;;;;;;2.50;1.80;;;10.80;67.30;;;;;;2076163;28;20525;-71
2023/03/17 02:38:30;;;;;;;3.00;2.00;;;10.80;67.20;;;;;;2076038;28;20025;-72
2023/03/17 02:39:31;;;;;;;3.28;1.88;;;10.80;67.30;;;;;;2074299;28;20502;-71
2023/03/17 02:40:32;;;;;;;2.33;1.92;;;10.80;67.60;;;;;;2073337;28;20378;-71
2023/03/17 02:41:33;;;;;;;1.92;1.75;;;10.70;67.60;;;;;;2073913;28;20018;-71
2023/03/17 02:42:34;;;;;;;4.10;2.13;;;10.70;67.60;;;;;;2075580;28;20595;-72
2023/03/17 02:43:35;;;;;;;2.05;1.83;;;10.80;67.30;;;;;;2074376;28;20056;-71
2023/03/17 02:44:35;;;;;;;3.17;2.60;;;10.70;67.30;;;;;;2077919;28;20489;-71
2023/03/17 02:45:36;;;;;;;2.22;2.03;;;10.80;67.50;;;;;;2077085;28;20037;-72
2023/03/17 02:46:36;;;;;;;2.25;2.05;;;10.80;67.60;;;;;;2074041;28;20030;-72
2023/03/17 02:47:37;;;;;;;3.50;1.90;;;10.80;67.20;;;;;;2076252;28;20517;-71
2023/03/17 02:48:38;;;;;;;2.28;2.00;;;10.80;67.00;;;;;;2073324;28;20029;-71
2023/03/17 02:49:41;;;;;;;2.67;2.40;;;10.80;67.10;;;;;;2073982;28;20109;-72
2023/03/17 02:50:41;;;;;;;2.47;1.77;;;10.80;67.00;;;;;;2073258;28;20390;-71
2023/03/17 02:51:42;;;;;;;2.17;1.85;;;10.80;67.00;;;;;;2075858;28;20057;-72
2023/03/17 02:52:42;;;;;;;3.65;1.92;;;10.80;67.00;;;;;;2080330;28;20029;-72
2023/03/17 02:53:43;;;;;;;2.30;1.95;;;10.80;67.00;;;;;;2074088;28;20049;-72
2023/03/17 02:54:43;;;;;;;2.58;1.88;;;10.80;67.10;;;;;;2075686;28;20033;-71
2023/03/17 02:55:44;;;;;;;2.35;1.88;;;10.80;66.90;;;;;;2076140;28;20040;-72
2023/03/17 02:56:45;;;;;;;2.38;1.90;;;10.80;66.70;;;;;;2074607;28;20033;-71
2023/03/17 02:57:45;;;;;;;2.40;1.88;;;10.80;66.60;;;;;;2076020;28;20020;-71
2023/03/17 02:58:46;;;;;;;3.63;2.35;;;10.80;66.80;;;;;;2075154;28;20083;-72
2023/03/17 02:59:46;;;;;;;2.85;2.10;;;10.80;66.70;;;;;;2073863;28;20552;-71
2023/03/17 03:00:48;;;;;;;3.22;1.88;;;10.80;66.60;;;;;;2074837;28;20044;-71
2023/03/17 03:01:49;;;;;;;1.83;1.70;;;10.90;66.70;;;;;;2075452;28;20021;-72
2023/03/17 03:02:49;;;;;;;3.67;2.20;;;10.90;66.60;;;;;;2075311;28;20025;-72
2023/03/17 03:03:50;;;;;;;2.80;2.38;;;10.80;66.50;;;;;;2075990;28;20026;-72
2023/03/17 03:04:51;;;;;;;3.63;2.15;;;10.80;66.70;;;;;;2076437;28;20124;-72
2023/03/17 03:05:52;;;;;;;2.13;1.92;;;10.80;66.70;;;;;;2076261;28;20068;-71
2023/03/17 03:06:53;;;;;;;3.38;2.20;;;10.80;66.80;;;;;;2074587;28;20028;-72
2023/03/17 03:07:54;;;;;;;3.95;1.83;;;10.80;66.80;;;;;;2074555;28;20041;-71
2023/03/17 03:08:54;;;;;;;5.10;2.65;;;10.90;66.90;;;;;;2073522;28;20033;-71
2023/03/17 03:09:55;;;;;;;2.55;1.75;;;10.90;66.90;;;;;;2075411;28;20039;-72
2023/03/17 03:10:56;;;;;;;3.28;2.13;;;10.90;67.00;;;;;;2078045;28;20167;-72
2023/03/17 03:11:56;;;;;;;2.90;2.15;;;10.80;66.70;;;;;;2075636;28;20448;-71
2023/03/17 03:12:57;;;;;;;2.45;1.90;;;10.80;66.60;;;;;;2076238;28;20029;-72
2023/03/17 03:13:57;;;;;;;3.42;2.65;;;10.80;66.60;;;;;;2075189;28;20096;-72
2023/03/17 03:14:58;;;;;;;2.92;2.03;;;10.80;66.60;;;;;;2075424;28;20061;-71
2023/03/17 03:15:59;;;;;;;2.50;2.30;;;10.80;66.50;;;;;;2076621;28;20474;-72
2023/03/17 03:16:59;;;;;;;4.22;2.30;;;10.80;66.50;;;;;;2070109;28;20022;-71
2023/03/17 03:18:00;;;;;;;1.88;1.73;;;10.80;66.80;;;;;;2076205;28;20064;-72
2023/03/17 03:19:01;;;;;;;3.40;2.28;;;10.80;66.90;;;;;;2075473;28;20033;-72
2023/03/17 03:20:02;;;;;;;1.80;1.70;;;10.80;66.80;;;;;;2074391;28;20084;-71
2023/03/17 03:21:03;;;;;;;3.38;1.85;;;10.90;66.70;;;;;;2074219;28;20041;-71
2023/03/17 03:22:04;;;;;;;2.28;1.63;;;10.80;66.80;;;;;;2074618;28;20892;-71
2023/03/17 03:23:04;;;;;;;2.40;2.03;;;10.80;67.00;;;;;;2072119;28;20018;-71
2023/03/17 03:24:06;;;;;;;3.25;2.20;;;10.80;67.10;;;;;;2077119;28;20017;-72
2023/03/17 03:25:07;;;;;;;2.63;2.03;;;10.70;66.80;;;;;;2075531;28;20095;-71
2023/03/17 03:26:08;;;;;;;3.05;1.83;;;10.80;66.80;;;;;;2077449;28;20033;-72
2023/03/17 03:27:09;;;;;;;3.20;2.08;;;10.70;67.10;;;;;;2077610;28;20063;-72
2023/03/17 03:28:09;;;;;;;3.20;1.90;;;10.70;67.20;;;;;;2074190;28;20033;-71
2023/03/17 03:29:10;;;;;;;5.00;2.20;;;10.70;67.40;;;;;;2073903;28;20033;-71
2023/03/17 03:30:11;;;;;;;2.20;1.70;;;10.70;67.30;;;;;;2072144;28;20033;-72
2023/03/17 03:31:12;;;;;;;2.13;1.90;;;10.70;67.40;;;;;;2077570;28;20071;-71
2023/03/17 03:32:13;;;;;;;4.03;1.95;;;10.70;67.10;;;;;;2076772;28;20021;-71
2023/03/17 03:33:14;;;;;;;3.92;2.28;;;10.70;67.00;;;;;;2074893;28;20033;-72
2023/03/17 03:34:15;;;;;;;3.55;1.98;;;10.70;67.10;;;;;;2073707;28;20034;-72
2023/03/17 03:35:16;;;;;;;2.17;1.77;;;10.70;67.10;;;;;;2073852;28;20658;-71
2023/03/17 03:36:17;;;;;;;2.70;1.90;;;10.70;66.90;;;;;;2077212;28;20455;-72
2023/03/17 03:37:17;;;;;;;3.03;2.33;;;10.70;67.10;;;;;;2064803;28;20041;-72
2023/03/17 03:38:18;;;;;;;2.75;2.05;;;10.70;67.90;;;;;;2071289;28;20070;-71
2023/03/17 03:39:18;;;;;;;2.75;1.90;;;10.70;67.10;;;;;;2075026;28;20083;-72
2023/03/17 03:40:19;;;;;;;5.07;2.15;;;10.70;67.10;;;;;;2078972;28;20030;-71
2023/03/17 03:41:20;;;;;;;2.10;1.90;;;10.60;66.90;;;;;;2077444;28;20037;-71
2023/03/17 03:42:20;;;;;;;2.92;2.25;;;10.70;67.10;;;;;;2074937;28;20096;-72
2023/03/17 03:43:21;;;;;;;2.33;2.13;;;10.60;67.20;;;;;;2074102;28;20026;-71
2023/03/17 03:44:21;;;;;;;2.08;1.88;;;10.60;67.00;;;;;;2074588;28;20021;-72
2023/03/17 03:45:22;;;;;;;1.83;1.73;;;10.60;67.10;;;;;;2075251;28;20026;-71
2023/03/17 03:46:23;;;;;;;2.28;2.08;;;10.70;67.10;;;;;;2073139;28;20026;-71
2023/03/17 03:47:23;;;;;;;1.95;1.77;;;10.70;67.10;;;;;;2074797;28;20041;-72
2023/03/17 03:48:24;;;;;;;2.80;2.08;;;10.60;67.80;;;;;;2074929;28;20022;-72
2023/03/17 03:49:24;;;;;;;1.98;1.77;;;10.60;67.20;;;;;;2082066;28;20492;-72
2023/03/17 03:50:25;;;;;;;2.38;1.80;;;10.60;67.20;;;;;;2081532;28;20016;-71
2023/03/17 03:51:25;;;;;;;2.40;2.08;;;10.60;67.30;;;;;;2076266;28;20061;-72
2023/03/17 03:52:26;;;;;;;4.88;2.03;;;10.60;67.30;;;;;;2073821;28;20147;-72
2023/03/17 03:53:27;;;;;;;2.40;1.60;;;10.60;67.20;;;;;;2080434;28;20688;-71
2023/03/17 03:54:28;;;;;;;2.85;2.10;;;10.60;67.40;;;;;;2078925;28;20095;-72
2023/03/17 03:55:28;;;;;;;2.35;1.90;;;10.60;67.50;;;;;;2076492;28;20041;-72
2023/03/17 03:56:29;;;;;;;3.25;1.92;;;10.50;67.20;;;;;;2077256;28;20141;-72
2023/03/17 03:57:29;;;;;;;2.25;1.80;;;10.50;67.30;;;;;;2074835;28;20112;-72
2023/03/17 03:58:30;;;;;;;2.50;1.88;;;10.50;67.30;;;;;;2073238;28;20026;-72
2023/03/17 03:59:31;;;;;;;2.90;2.35;;;10.60;67.60;;;;;;2076566;28;20030;-72
2023/03/17 04:00:32;;;;;;;4.63;2.08;;;10.50;67.50;;;;;;2074339;28;20096;-71
2023/03/17 04:01:32;;;;;;;4.35;2.20;;;10.50;67.40;;;;;;2072877;28;20034;-71
2023/03/17 04:02:33;;;;;;;2.30;2.10;;;10.50;67.50;;;;;;2073766;28;20505;-72
2023/03/17 04:03:36;;;;;;;2.53;2.20;;;10.50;67.50;;;;;;2074894;28;20029;-71
2023/03/17 04:04:36;;;;;;;3.72;2.40;;;10.50;67.50;;;;;;2077512;28;20041;-72
2023/03/17 04:05:37;;;;;;;2.35;1.73;;;10.50;67.50;;;;;;2073766;28;20517;-71
2023/03/17 04:06:38;;;;;;;2.60;2.00;;;10.50;67.50;;;;;;2072800;28;20037;-72
2023/03/17 04:07:39;;;;;;;2.75;2.10;;;10.50;67.50;;;;;;2073852;28;20504;-71
2023/03/17 04:08:40;;;;;;;2.55;1.90;;;10.50;67.30;;;;;;2074329;28;20048;-71
2023/03/17 04:09:41;;;;;;;5.95;2.00;;;10.50;67.30;;;;;;2076020;28;20033;-72
2023/03/17 04:10:41;;;;;;;6.63;2.35;;;10.50;67.40;;;;;;2075154;28;20026;-71
2023/03/17 04:11:42;;;;;;;2.65;2.08;;;10.50;67.40;;;;;;2075823;28;20045;-72
2023/03/17 04:12:43;;;;;;;2.28;2.08;;;10.50;67.40;;;;;;2075923;28;20030;-71
2023/03/17 04:13:44;;;;;;;2.88;2.17;;;10.50;67.40;;;;;;2074303;28;20060;-72
2023/03/17 04:14:44;;;;;;;5.07;2.10;;;10.50;67.60;;;;;;2074984;28;20690;-71
2023/03/17 04:15:45;;;;;;;1.77;1.67;;;10.50;67.40;;;;;;2075023;28;20053;-71
2023/03/17 04:16:45;;;;;;;3.08;2.10;;;10.50;67.40;;;;;;2074066;28;20067;-71
2023/03/17 04:17:46;;;;;;;3.78;2.17;;;10.50;67.40;;;;;;2072419;28;20521;-71
2023/03/17 04:18:47;;;;;;;2.65;2.17;;;10.50;67.40;;;;;;2074439;28;20041;-71
2023/03/17 04:19:48;;;;;;;2.35;2.13;;;10.50;67.50;;;;;;2072901;28;20037;-71
2023/03/17 04:20:48;;;;;;;2.35;1.98;;;10.40;67.30;;;;;;2074890;28;20028;-71
2023/03/17 04:21:49;;;;;;;3.47;1.98;;;10.50;67.50;;;;;;2073361;28;20107;-71
2023/03/17 04:22:50;;;;;;;2.00;1.63;;;10.50;67.60;;;;;;2076122;28;20572;-71
2023/03/17 04:23:51;;;;;;;2.55;2.05;;;10.50;67.60;;;;;;2074910;28;20401;-71
2023/03/17 04:24:51;;;;;;;5.28;2.05;;;10.50;67.70;;;;;;2074865;28;20034;-71
2023/03/17 04:25:52;;;;;;;2.88;1.95;;;10.40;67.50;;;;;;2075011;28;20029;-71
2023/03/17 04:26:53;;;;;;;2.92;1.95;;;10.50;67.70;;;;;;2076167;28;20025;-71
2023/03/17 04:27:54;;;;;;;3.42;2.58;;;10.40;67.50;;;;;;2076713;28;20037;-71
2023/03/17 04:28:54;;;;;;;3.03;2.00;;;10.40;67.50;;;;;;2075570;28;20030;-71
2023/03/17 04:29:55;;;;;;;3.03;1.92;;;10.40;67.60;;;;;;2073814;28;20112;-71
2023/03/17 04:30:56;;;;;;;3.00;2.13;;;10.40;67.80;;;;;;2074751;28;20034;-71
2023/03/17 04:31:56;;;;;;;3.55;2.00;;;10.40;67.70;;;;;;2074460;28;20072;-71
2023/03/17 04:32:57;;;;;;;3.15;2.05;;;10.40;67.70;;;;;;2073994;28;20151;-71
2023/03/17 04:33:57;;;;;;;2.25;1.80;;;10.40;67.80;;;;;;2073791;28;20030;-71
2023/03/17 04:34:58;;;;;;;2.28;1.92;;;10.40;67.90;;;;;;2074464;28;20033;-71
2023/03/17 04:35:58;;;;;;;2.65;1.98;;;10.40;67.90;;;;;;2076061;28;20026;-71
2023/03/17 04:36:59;;;;;;;2.67;1.80;;;10.40;67.60;;;;;;2075132;28;20109;-71
2023/03/17 04:38:00;;;;;;;2.20;2.00;;;10.40;67.60;;;;;;2074732;28;20029;-71
2023/03/17 04:39:00;;;;;;;2.42;2.10;;;10.30;67.80;;;;;;2075142;28;20045;-71
2023/03/17 04:40:01;;;;;;;3.13;2.08;;;10.40;67.90;;;;;;2079683;28;20028;-71
2023/03/17 04:41:01;;;;;;;3.28;2.47;;;10.40;68.00;;;;;;2079863;28;20148;-71
2023/03/17 04:42:03;;;;;;;2.33;1.77;;;10.40;67.90;;;;;;2075906;28;20022;-71
2023/03/17 04:43:05;;;;;;;1.90;1.70;;;10.30;67.90;;;;;;2073984;28;20097;-71
2023/03/17 04:44:06;;;;;;;4.43;1.60;;;10.40;68.00;;;;;;2073854;28;20013;-71
2023/03/17 04:45:10;;;;;;;2.92;1.90;;;10.30;68.10;;;;;;2074454;28;20558;-71
2023/03/17 04:46:10;;;;;;;3.03;2.03;;;10.30;67.90;;;;;;2074533;28;20033;-71
2023/03/17 04:47:11;;;;;;;1.92;1.73;;;10.30;67.80;;;;;;2075944;28;20116;-71
2023/03/17 04:48:11;;;;;;;2.40;1.75;;;10.30;67.80;;;;;;2077501;28;20022;-71
2023/03/17 04:49:12;;;;;;;3.20;1.80;;;10.30;67.50;;;;;;2082340;28;20083;-71
2023/03/17 04:50:13;;;;;;;2.45;2.15;;;10.30;67.80;;;;;;2074566;28;20029;-71
2023/03/17 04:51:14;;;;;;;2.65;1.67;;;10.30;67.80;;;;;;2073036;28;20045;-71
2023/03/17 04:52:14;;;;;;;2.17;1.65;;;10.30;67.80;;;;;;2075153;28;20053;-71
2023/03/17 04:53:15;;;;;;;2.70;1.80;;;10.30;67.80;;;;;;2075469;28;20033;-71
2023/03/17 04:54:15;;;;;;;1.45;1.35;;;10.30;67.90;;;;;;2075570;28;20064;-71
2023/03/17 04:55:16;;;;;;;4.72;2.00;;;10.30;68.00;;;;;;2075030;28;20496;-71
2023/03/17 04:56:17;;;;;;;6.13;2.00;;;10.30;68.10;;;;;;2074394;28;20026;-71
2023/03/17 04:57:17;;;;;;;3.35;1.65;;;10.30;67.90;;;;;;2073746;28;20100;-71
2023/03/17 04:58:19;;;;;;;2.53;1.85;;;10.30;68.00;;;;;;2074766;28;20053;-71
2023/03/17 04:59:19;;;;;;;1.88;1.77;;;10.30;68.00;;;;;;2072844;28;20026;-71
2023/03/17 05:00:20;;;;;;;3.10;1.88;;;10.30;68.30;;;;;;2072314;28;20116;-71
2023/03/17 05:01:21;;;;;;;2.50;1.98;;;10.30;68.30;;;;;;2072523;28;20026;-71
2023/03/17 05:02:21;;;;;;;2.58;2.10;;;10.30;68.10;;;;;;2073494;28;20096;-71
2023/03/17 05:03:23;;;;;;;4.00;2.03;;;10.30;68.10;;;;;;2074355;28;20022;-71
2023/03/17 05:04:24;;;;;;;2.15;1.88;;;10.20;68.00;;;;;;2075082;28;20457;-71
2023/03/17 05:05:24;;;;;;;3.90;2.20;;;10.20;68.30;;;;;;2073494;28;20607;-71
2023/03/17 05:06:25;;;;;;;4.40;1.95;;;10.20;68.10;;;;;;2075357;28;20025;-71
2023/03/17 05:07:25;;;;;;;3.00;2.17;;;10.30;68.20;;;;;;2076299;28;20041;-71
2023/03/17 05:08:27;;;;;;;3.17;1.92;;;10.30;68.40;;;;;;2077013;28;20024;-71
2023/03/17 05:09:27;;;;;;;2.20;1.90;;;10.30;68.60;;;;;;2079412;28;20017;-71
2023/03/17 05:10:28;;;;;;;3.63;2.20;;;10.30;68.50;;;;;;2074933;28;20026;-71
2023/03/17 05:11:28;;;;;;;2.47;1.95;;;10.20;68.40;;;;;;2074390;28;20122;-71
2023/03/17 05:12:29;;;;;;;2.45;2.08;;;10.20;68.40;;;;;;2075947;28;20026;-71
2023/03/17 05:13:30;;;;;;;2.95;2.03;;;10.20;68.20;;;;;;2073693;28;20030;-71
2023/03/17 05:14:30;;;;;;;3.20;2.13;;;10.20;68.50;;;;;;2073351;28;20060;-71
2023/03/17 05:15:31;;;;;;;2.13;1.92;;;10.20;68.60;;;;;;2074967;28;20029;-71
2023/03/17 05:16:31;;;;;;;2.47;2.17;;;10.20;68.60;;;;;;2074581;28;20030;-71
2023/03/17 05:17:32;;;;;;;3.55;2.00;;;10.20;68.70;;;;;;2072991;28;20137;-71
2023/03/17 05:18:33;;;;;;;2.72;1.90;;;10.20;68.60;;;;;;2074776;28;20470;-71
2023/03/17 05:19:34;;;;;;;4.53;1.92;;;10.20;68.70;;;;;;2076562;28;20057;-71
2023/03/17 05:20:34;;;;;;;4.38;2.20;;;10.10;68.70;;;;;;2073590;28;20824;-71